Gregory, South Dakota
Current Conditions -  °F | °C
As of 6:53 AM on Saturday 25 Oct 2014 (Local Time) from KICR Reporting Station
Clear Clear  
Wind Chill: 44°   Ceiling: Unl
Heat Index: 44°   Visibility: 10mi
Dew Point: 34°   Wind: 3mph
Humidity: 68%   Direction: 270°W
Pressure: 30.14"   Gusts: NA
Location:  43.23°N, 99.43°W
Report Text: KICR 251153Z AUTO 27003KT 10SM CLR 07/01 A3014 RMK AO2 SLP204 7//// T00670011 10106 20061 53006 $
Loading
Personal Weather Stations






























Interactive Weather Map
Tropical Storm Tracking
New forecast layout! Learn more

10-Day Weather Forecast

Advertisements
Track Severe Weather on mobile